createdAt,value
2024-01-08T00:07:12.183Z,76.92
2024-01-08T00:29:44.133Z,76.83
2024-01-08T00:52:16.060Z,77.03
2024-01-08T01:14:47.975Z,77.59
2024-01-08T01:37:19.869Z,77.09
2024-01-08T01:59:51.832Z,76.29
2024-01-08T02:22:23.847Z,76.13
2024-01-08T02:44:57.288Z,74.81
2024-01-08T03:07:29.279Z,75.18
2024-01-08T03:30:01.260Z,76.21
2024-01-08T03:52:33.424Z,76.46
2024-01-08T04:15:06.562Z,76.90
2024-01-08T04:37:38.465Z,75.19
2024-01-08T05:00:13.030Z,74.83
2024-01-08T05:22:44.996Z,75.53
2024-01-08T05:45:17.024Z,75.86
2024-01-08T06:07:50.187Z,76.49
2024-01-08T06:30:22.256Z,75.78
2024-01-08T06:52:54.317Z,76.00
2024-01-08T07:15:50.226Z,76.08
2024-01-08T07:38:23.290Z,75.14
2024-01-08T08:00:55.431Z,74.90
2024-01-08T08:23:27.435Z,68.93
2024-01-08T08:46:03.025Z,65.92
2024-01-08T09:08:35.308Z,65.81
2024-01-08T09:31:08.585Z,64.74
2024-01-08T09:53:40.608Z,65.86
2024-01-08T10:16:15.638Z,63.54
2024-01-08T10:38:50.809Z,61.79
2024-01-08T11:01:23.107Z,62.00
2024-01-08T11:23:55.038Z,54.37
2024-01-08T11:46:26.958Z,49.61
2024-01-08T12:08:59.015Z,31.01
2024-01-08T12:31:36.168Z,44.27
2024-01-08T12:54:09.202Z,53.91
2024-01-08T13:16:42.673Z,58.24
2024-01-08T13:39:14.929Z,60.99
2024-01-08T14:01:46.883Z,62.24
2024-01-08T14:24:19.881Z,63.66
2024-01-08T14:46:51.918Z,64.29
2024-01-08T15:09:24.727Z,65.26
2024-01-08T15:31:57.230Z,67.24
2024-01-08T15:54:29.764Z,68.57
2024-01-08T16:17:02.244Z,70.03
2024-01-08T16:39:34.323Z,71.69
2024-01-08T17:02:06.483Z,71.88
2024-01-08T17:24:38.557Z,72.17
2024-01-08T17:47:10.672Z,72.65
2024-01-08T18:09:43.370Z,73.13
2024-01-08T18:32:16.403Z,73.87
2024-01-08T18:54:48.409Z,74.09
2024-01-08T19:17:20.312Z,74.87
2024-01-08T19:39:52.212Z,75.35
2024-01-08T20:02:25.360Z,76.19
2024-01-08T20:24:58.894Z,76.77
2024-01-08T20:47:30.939Z,77.70
2024-01-08T21:10:05.060Z,77.84
2024-01-08T21:32:38.997Z,77.40
2024-01-08T21:55:13.207Z,77.52
2024-01-08T22:17:45.188Z,77.38
2024-01-08T22:40:17.613Z,77.26
2024-01-08T23:02:49.706Z,76.55
2024-01-08T23:25:21.668Z,75.83
2024-01-08T23:47:53.698Z,75.66
